createdAt,value
2022-09-20T06:14:44.050Z,6.26
2022-09-20T06:24:44.061Z,5.81
2022-09-20T06:34:44.262Z,8.08
2022-09-20T06:44:44.130Z,6.75
2022-09-20T06:54:44.352Z,5.43
2022-09-20T07:04:44.191Z,8.52
2022-09-20T07:14:44.302Z,6.79
2022-09-20T07:24:44.192Z,5.65
2022-09-20T07:34:44.372Z,7.00
2022-09-20T07:44:44.222Z,7.57
2022-09-20T07:54:44.363Z,7.01
2022-09-20T08:04:44.219Z,8.07
2022-09-20T08:14:44.253Z,11.73
2022-09-20T08:24:44.404Z,7.65
2022-09-20T08:34:49.304Z,8.22
2022-09-20T08:44:45.756Z,7.16
2022-09-20T08:54:44.292Z,8.11
2022-09-20T09:04:44.172Z,9.03
2022-09-20T09:14:44.394Z,6.53
2022-09-20T09:24:44.443Z,6.25
2022-09-20T09:34:44.483Z,6.33
2022-09-20T09:44:45.555Z,9.10
2022-09-20T09:54:44.688Z,8.74
2022-09-20T10:04:44.795Z,8.57
2022-09-20T10:14:44.924Z,8.90
2022-09-20T10:24:48.563Z,9.86
2022-09-20T10:34:45.064Z,5.81
2022-09-20T10:44:45.103Z,8.21
2022-09-20T10:54:44.976Z,9.55
2022-09-20T11:04:45.014Z,4.58
2022-09-20T11:14:44.995Z,6.14
2022-09-20T11:24:45.037Z,8.58
2022-09-20T11:34:45.097Z,8.92
2022-09-20T11:44:44.981Z,8.09
2022-09-20T11:54:45.054Z,9.36
2022-09-20T12:04:45.048Z,9.52
2022-09-20T12:14:45.170Z,8.06
2022-09-20T12:24:45.624Z,11.18
2022-09-20T12:34:45.130Z,9.84
2022-09-20T12:44:45.053Z,7.56
2022-09-20T12:54:45.031Z,5.85
2022-09-20T13:04:45.019Z,10.84
2022-09-20T13:14:45.185Z,12.93
2022-09-20T13:24:45.027Z,16.82
2022-09-20T13:34:45.150Z,8.05
2022-09-20T13:44:45.249Z,3.86
2022-09-20T13:54:45.198Z,3.44
2022-09-20T14:04:45.219Z,11.60
2022-09-20T14:14:45.160Z,9.56
2022-09-20T14:24:45.200Z,7.21
2022-09-20T14:34:45.073Z,7.52
2022-09-20T14:44:45.112Z,6.08
2022-09-20T14:54:44.994Z,2.63
2022-09-20T15:04:45.260Z,3.29
2022-09-20T15:14:45.222Z,1.89
2022-09-20T15:24:45.347Z,2.41
2022-09-20T15:34:45.170Z,2.52
2022-09-20T15:44:45.168Z,5.76
2022-09-20T15:54:45.182Z,10.08
2022-09-20T16:04:45.398Z,7.93
2022-09-20T16:14:45.155Z,3.18
2022-09-20T16:24:45.303Z,2.92
2022-09-20T16:34:45.431Z,3.04
2022-09-20T16:44:45.342Z,1.79
2022-09-20T16:54:45.296Z,0.89
2022-09-20T17:04:45.355Z,0.31
2022-09-20T17:14:45.243Z,0.00
2022-09-20T17:24:45.293Z,1.69
2022-09-20T17:34:45.367Z,2.66
2022-09-20T17:44:45.308Z,2.07
2022-09-20T17:54:45.372Z,3.92
2022-09-20T18:04:45.179Z,5.32
2022-09-20T18:14:45.423Z,3.01
2022-09-20T18:24:45.311Z,3.45
2022-09-20T18:34:45.398Z,5.53
2022-09-20T18:44:45.483Z,4.99
2022-09-20T18:54:45.405Z,2.00
2022-09-20T19:04:45.382Z,4.27
2022-09-20T19:14:45.272Z,2.31
